createdAt,value
2022-12-13T00:01:57.697Z,37.33
2022-12-13T00:04:24.986Z,36.03
2022-12-13T00:06:54.247Z,35.92
2022-12-13T00:09:21.967Z,35.38
2022-12-13T00:11:48.608Z,36.67
2022-12-13T00:14:15.464Z,37.33
2022-12-13T00:16:45.739Z,39.75
2022-12-13T00:19:12.521Z,40.22
2022-12-13T00:21:38.976Z,39.92
2022-12-13T00:24:07.150Z,41.03
2022-12-13T00:26:34.133Z,44.63
2022-12-13T00:29:04.836Z,42.60
2022-12-13T00:34:20.886Z,41.13
2022-12-13T00:36:48.435Z,41.75
2022-12-13T00:39:16.563Z,38.40
2022-12-13T00:41:44.027Z,38.20
2022-12-13T00:44:12.029Z,37.80
2022-12-13T00:46:39.642Z,36.05
2022-12-13T00:49:06.192Z,36.22
2022-12-13T00:51:34.385Z,34.45
2022-12-13T00:54:01.776Z,36.58
2022-12-13T00:56:30.847Z,36.53
2022-12-13T00:58:57.561Z,33.92
2022-12-13T01:01:27.436Z,37.38
2022-12-13T01:03:55.376Z,35.30
2022-12-13T01:06:30.011Z,35.80
2022-12-13T01:08:56.768Z,34.50
2022-12-13T01:11:23.609Z,33.25
2022-12-13T01:13:50.064Z,31.45
2022-12-13T01:16:16.680Z,32.33
2022-12-13T01:18:43.281Z,33.17
2022-12-13T01:21:15.260Z,32.63
2022-12-13T01:23:42.615Z,32.75
2022-12-13T01:26:12.184Z,31.98
2022-12-13T01:28:38.877Z,30.80
2022-12-13T01:31:09.270Z,30.23
2022-12-13T01:33:35.902Z,30.83
2022-12-13T01:36:05.871Z,30.80
2022-12-13T01:38:37.698Z,30.73
2022-12-13T01:41:17.063Z,31.10
2022-12-13T01:43:44.782Z,31.98
2022-12-13T01:46:12.035Z,29.10
2022-12-13T01:48:44.515Z,28.40
2022-12-13T01:51:13.473Z,29.02
2022-12-13T01:53:41.155Z,28.25
2022-12-13T01:56:11.058Z,29.00
2022-12-13T01:58:38.504Z,28.92
2022-12-13T02:01:05.437Z,29.02
2022-12-13T02:03:33.188Z,29.63
2022-12-13T02:06:07.435Z,27.67
2022-12-13T02:08:36.118Z,28.02
2022-12-13T02:11:03.539Z,27.95
2022-12-13T02:13:29.999Z,26.23
2022-12-13T02:16:06.607Z,27.00
2022-12-13T02:18:48.721Z,26.77
2022-12-13T02:21:41.176Z,27.83
2022-12-13T02:24:30.864Z,27.83
2022-12-13T02:27:09.610Z,27.48
2022-12-13T02:29:51.153Z,27.05
2022-12-13T02:32:32.114Z,27.92
2022-12-13T02:35:17.818Z,27.48
2022-12-13T02:38:03.256Z,27.08
2022-12-13T02:40:37.781Z,27.77
2022-12-13T02:43:12.264Z,27.35
2022-12-13T02:45:44.572Z,27.05
2022-12-13T02:48:12.413Z,29.30
2022-12-13T02:50:39.458Z,29.25
2022-12-13T02:53:07.423Z,28.35
2022-12-13T02:55:35.941Z,28.10
2022-12-13T02:58:02.387Z,29.92
2022-12-13T03:00:49.011Z,29.20
2022-12-13T03:03:30.636Z,27.50
2022-12-13T03:06:24.059Z,27.33
2022-12-13T03:09:10.796Z,28.88
2022-12-13T03:12:24.007Z,28.27
2022-12-13T03:15:19.398Z,29.20
2022-12-13T03:17:50.795Z,29.00
2022-12-13T03:20:23.336Z,27.23
2022-12-13T03:22:51.319Z,28.80
2022-12-13T03:25:31.773Z,29.73
2022-12-13T03:28:01.340Z,29.98
2022-12-13T03:30:29.003Z,31.30
2022-12-13T03:32:55.438Z,31.63
2022-12-13T03:35:22.791Z,31.10
2022-12-13T03:37:49.609Z,31.65
2022-12-13T03:40:16.371Z,28.90
2022-12-13T03:42:42.867Z,31.77
2022-12-13T03:45:09.666Z,32.78
2022-12-13T03:47:36.125Z,31.17
2022-12-13T03:50:25.328Z,31.52
2022-12-13T03:52:51.357Z,30.08
2022-12-13T03:55:18.678Z,31.08
2022-12-13T03:57:45.135Z,28.20
2022-12-13T04:00:12.266Z,30.55
2022-12-13T04:02:38.820Z,31.55
2022-12-13T04:05:06.132Z,28.27
2022-12-13T04:07:34.180Z,32.15
2022-12-13T04:10:01.336Z,32.30
2022-12-13T04:12:48.603Z,31.92
2022-12-13T04:15:15.988Z,32.10
2022-12-13T04:17:42.918Z,30.30
2022-12-13T04:20:17.429Z,29.65
2022-12-13T04:22:43.866Z,31.23
2022-12-13T04:25:12.348Z,28.73
2022-12-13T04:27:39.026Z,29.42
2022-12-13T04:30:06.674Z,31.38
2022-12-13T04:32:33.172Z,32.08
2022-12-13T04:35:01.358Z,30.83
2022-12-13T04:37:28.449Z,28.58
2022-12-13T04:40:00.468Z,29.05
2022-12-13T04:42:27.540Z,29.95
2022-12-13T04:44:54.415Z,30.90
2022-12-13T04:47:20.851Z,28.95
2022-12-13T04:49:48.015Z,29.73
2022-12-13T04:52:22.074Z,28.88
2022-12-13T04:54:55.917Z,29.75
2022-12-13T04:57:22.953Z,27.05
2022-12-13T04:59:49.479Z,26.65
2022-12-13T05:02:23.466Z,28.52
2022-12-13T05:04:53.581Z,26.92
2022-12-13T05:07:21.415Z,26.60
2022-12-13T05:09:47.873Z,25.77
2022-12-13T05:12:23.057Z,24.85
2022-12-13T05:14:51.550Z,26.17
2022-12-13T05:17:18.242Z,25.80
2022-12-13T05:19:44.747Z,25.35
2022-12-13T05:22:19.755Z,24.67
2022-12-13T05:24:48.033Z,24.45
2022-12-13T05:27:24.949Z,24.67
2022-12-13T05:30:03.154Z,23.75
2022-12-13T05:32:33.892Z,24.00
2022-12-13T05:35:11.700Z,25.38
2022-12-13T05:37:38.149Z,24.23
2022-12-13T05:40:05.439Z,24.13
2022-12-13T05:42:31.856Z,25.65
2022-12-13T05:44:58.339Z,22.80
2022-12-13T05:47:24.751Z,22.88
2022-12-13T05:49:52.130Z,23.92
2022-12-13T05:52:19.716Z,23.17
2022-12-13T05:54:46.184Z,23.27
2022-12-13T05:57:13.037Z,22.88
2022-12-13T05:59:39.468Z,23.42
2022-12-13T06:02:06.015Z,22.80
2022-12-13T06:04:32.673Z,22.08
2022-12-13T06:06:59.120Z,23.95
2022-12-13T06:09:25.605Z,25.33
2022-12-13T06:11:52.607Z,24.70
2022-12-13T06:14:27.891Z,25.20
2022-12-13T06:16:54.571Z,24.67
2022-12-13T06:19:21.983Z,23.02
2022-12-13T06:21:49.618Z,23.33
2022-12-13T06:24:20.947Z,25.17
2022-12-13T06:26:48.677Z,24.50
2022-12-13T06:29:24.302Z,25.48
2022-12-13T06:32:03.313Z,23.90
2022-12-13T06:34:32.520Z,21.75
2022-12-13T06:36:58.986Z,24.30
2022-12-13T06:39:32.666Z,24.27
2022-12-13T06:42:00.646Z,22.10
2022-12-13T06:44:27.114Z,23.52
2022-12-13T06:46:53.559Z,22.35
2022-12-13T06:49:38.935Z,23.15
2022-12-13T06:52:05.674Z,23.27
2022-12-13T06:54:32.098Z,22.58
2022-12-13T06:56:58.565Z,24.05
2022-12-13T06:59:25.014Z,23.35
2022-12-13T07:01:51.542Z,23.40
2022-12-13T07:04:30.173Z,24.08
2022-12-13T07:07:01.994Z,23.73
2022-12-13T07:09:32.665Z,24.63
2022-12-13T07:11:59.378Z,24.08
2022-12-13T07:14:25.918Z,23.25
2022-12-13T07:16:53.775Z,26.08
2022-12-13T07:19:24.755Z,24.73
2022-12-13T07:21:52.072Z,26.52
2022-12-13T07:24:18.789Z,26.05
2022-12-13T07:26:45.266Z,26.52
2022-12-13T07:29:11.766Z,27.60
2022-12-13T07:31:38.297Z,25.88
2022-12-13T07:34:04.909Z,25.83
2022-12-13T07:36:31.464Z,23.55
2022-12-13T07:38:58.492Z,23.90
2022-12-13T07:41:26.157Z,23.25
2022-12-13T07:43:54.816Z,23.20
2022-12-13T07:46:25.969Z,24.60
2022-12-13T07:49:02.729Z,24.60
2022-12-13T07:51:29.280Z,25.40
2022-12-13T07:53:55.743Z,23.33
2022-12-13T07:56:22.218Z,22.73
2022-12-13T07:58:48.728Z,23.08
2022-12-13T08:01:15.206Z,22.70
2022-12-13T08:03:41.642Z,23.05
2022-12-13T08:06:12.644Z,24.17
2022-12-13T08:08:39.844Z,23.05
2022-12-13T08:11:09.047Z,24.25
2022-12-13T08:13:36.278Z,26.27
2022-12-13T08:16:28.192Z,28.95
2022-12-13T08:19:01.738Z,32.42
2022-12-13T08:21:54.579Z,34.05
2022-12-13T08:24:23.919Z,35.25
2022-12-13T08:26:50.496Z,31.77
2022-12-13T08:29:23.207Z,29.73
2022-12-13T08:32:01.655Z,28.35
2022-12-13T08:34:28.302Z,27.38
2022-12-13T08:37:02.143Z,26.63
2022-12-13T08:39:30.609Z,27.60
2022-12-13T08:42:17.123Z,30.25
2022-12-13T08:44:53.019Z,32.28
2022-12-13T08:47:22.861Z,35.67
2022-12-13T08:50:01.481Z,36.10
2022-12-13T08:52:30.387Z,37.38
2022-12-13T08:54:56.811Z,34.40
2022-12-13T08:57:23.321Z,33.50
2022-12-13T08:59:49.908Z,31.95
2022-12-13T09:02:16.616Z,31.05
2022-12-13T09:04:43.635Z,30.67
2022-12-13T09:07:10.185Z,29.13
2022-12-13T09:09:37.429Z,29.77
2022-12-13T09:12:11.038Z,28.92
2022-12-13T09:14:51.767Z,28.83
2022-12-13T09:17:24.412Z,27.35
2022-12-13T09:19:57.827Z,27.83
2022-12-13T09:22:33.186Z,28.60
2022-12-13T09:25:02.535Z,27.17
2022-12-13T09:27:30.615Z,28.63
2022-12-13T09:29:57.466Z,31.35
2022-12-13T09:32:25.252Z,29.23
2022-12-13T09:34:51.765Z,31.93
2022-12-13T09:37:23.135Z,31.80
2022-12-13T09:39:54.846Z,29.37
2022-12-13T09:42:30.192Z,31.58
2022-12-13T09:45:04.517Z,29.13
2022-12-13T09:47:35.219Z,29.90
2022-12-13T09:50:15.126Z,36.60
2022-12-13T09:52:43.237Z,39.63
2022-12-13T09:55:24.989Z,33.40
2022-12-13T09:57:52.289Z,33.07
2022-12-13T10:00:21.804Z,31.03
2022-12-13T10:02:58.344Z,29.07
2022-12-13T10:05:42.076Z,30.00
2022-12-13T10:08:18.197Z,29.33
2022-12-13T10:10:45.121Z,29.00
2022-12-13T10:13:25.681Z,29.33
2022-12-13T10:15:57.792Z,29.60
2022-12-13T10:18:44.028Z,29.63
2022-12-13T10:21:29.552Z,29.47
2022-12-13T10:24:25.242Z,29.33
2022-12-13T10:26:52.140Z,28.08
2022-12-13T10:29:18.756Z,28.23
2022-12-13T10:31:47.660Z,31.02
2022-12-13T10:34:17.094Z,30.60
2022-12-13T10:36:43.764Z,30.20
2022-12-13T10:39:34.917Z,31.70
2022-12-13T10:42:12.616Z,31.88
2022-12-13T10:44:39.078Z,30.40
2022-12-13T10:47:22.462Z,33.07
2022-12-13T10:49:59.013Z,30.57
2022-12-13T10:52:43.526Z,31.77
2022-12-13T10:55:30.921Z,31.87
2022-12-13T10:58:00.869Z,30.97
2022-12-13T11:00:32.304Z,29.53
2022-12-13T11:02:58.987Z,29.60
2022-12-13T11:05:34.039Z,28.43
2022-12-13T11:08:15.542Z,28.30
2022-12-13T11:10:42.963Z,28.17
2022-12-13T11:13:25.636Z,27.00
2022-12-13T11:15:55.809Z,27.10
2022-12-13T11:18:24.622Z,25.53
2022-12-13T11:20:57.471Z,25.60
2022-12-13T11:23:34.616Z,24.97
2022-12-13T11:26:07.052Z,24.83
2022-12-13T11:28:51.747Z,27.30
2022-12-13T11:31:21.253Z,24.50
2022-12-13T11:34:21.747Z,26.70
2022-12-13T11:36:58.864Z,23.60
2022-12-13T11:39:33.399Z,25.30
2022-12-13T11:42:05.542Z,25.63
2022-12-13T11:44:47.711Z,24.63
2022-12-13T11:47:20.883Z,25.00
2022-12-13T11:49:48.033Z,24.93
2022-12-13T11:52:20.204Z,24.93
2022-12-13T11:54:59.961Z,23.70
2022-12-13T11:57:51.100Z,24.83
2022-12-13T12:00:33.587Z,23.00
2022-12-13T12:03:17.079Z,23.43
2022-12-13T12:05:55.985Z,23.03
2022-12-13T12:08:54.069Z,23.07
2022-12-13T12:11:28.033Z,23.93
2022-12-13T12:13:59.230Z,25.07
2022-12-13T12:16:31.152Z,23.30
2022-12-13T12:19:01.401Z,24.63
2022-12-13T12:22:13.178Z,22.83
2022-12-13T12:25:02.048Z,23.50
2022-12-13T12:27:50.054Z,23.47
2022-12-13T12:30:55.651Z,22.57
2022-12-13T12:33:39.449Z,24.87
2022-12-13T12:36:22.155Z,24.90
2022-12-13T12:38:57.918Z,23.37
2022-12-13T12:41:45.968Z,23.00
2022-12-13T12:44:19.883Z,22.83
2022-12-13T12:47:31.632Z,25.47
2022-12-13T12:50:10.986Z,23.47
2022-12-13T12:53:25.487Z,23.43
2022-12-13T12:56:17.399Z,25.63
2022-12-13T12:58:51.781Z,22.63
2022-12-13T13:01:25.705Z,27.97
2022-12-13T13:03:54.072Z,24.43
2022-12-13T13:06:40.034Z,23.07
2022-12-13T13:09:08.772Z,22.23
2022-12-13T13:11:42.812Z,23.03
2022-12-13T13:14:31.546Z,22.90
2022-12-13T13:17:23.639Z,23.33
2022-12-13T13:20:00.040Z,25.13
2022-12-13T13:22:43.527Z,25.00
2022-12-13T13:25:31.186Z,23.60
2022-12-13T13:28:06.500Z,24.37
2022-12-13T13:30:33.341Z,24.03
2022-12-13T13:32:59.873Z,24.70
2022-12-13T13:35:36.146Z,23.97
2022-12-13T13:38:06.992Z,23.37
2022-12-13T13:40:38.350Z,24.33
2022-12-13T13:43:16.508Z,25.90
2022-12-13T13:45:57.220Z,24.80
2022-12-13T13:48:51.834Z,25.73
2022-12-13T13:55:10.770Z,26.13
2022-12-13T13:58:08.752Z,27.97
2022-12-13T14:00:58.244Z,29.50
2022-12-13T14:04:02.869Z,26.80
2022-12-13T14:06:53.293Z,29.07
2022-12-13T14:09:46.206Z,28.77
2022-12-13T14:12:15.693Z,30.57
2022-12-13T14:15:01.186Z,29.43
2022-12-13T14:17:52.783Z,28.20
2022-12-13T14:20:39.111Z,28.23
2022-12-13T14:23:42.884Z,31.10
2022-12-13T14:26:43.886Z,36.00
2022-12-13T14:29:17.293Z,30.87
2022-12-13T14:31:47.143Z,29.70
2022-12-13T14:34:43.621Z,28.33
2022-12-13T14:37:31.119Z,29.80
2022-12-13T14:39:58.844Z,29.73
2022-12-13T14:42:33.731Z,28.57
2022-12-13T14:45:18.786Z,27.43
2022-12-13T14:47:45.435Z,29.27
2022-12-13T14:50:18.422Z,29.40
2022-12-13T14:52:55.279Z,27.10
2022-12-13T14:55:36.359Z,29.60
2022-12-13T14:58:19.359Z,28.73
2022-12-13T15:00:46.102Z,30.37
2022-12-13T15:03:22.427Z,30.43
2022-12-13T15:06:00.536Z,27.97
2022-12-13T15:08:27.449Z,29.20
2022-12-13T15:11:03.079Z,31.60
2022-12-13T15:13:44.419Z,30.63
2022-12-13T15:16:25.718Z,29.93
2022-12-13T15:19:32.026Z,29.03
2022-12-13T15:22:05.924Z,31.27
2022-12-13T15:24:38.183Z,30.40
2022-12-13T15:27:04.970Z,30.03
2022-12-13T15:29:33.265Z,30.33
2022-12-13T15:32:01.168Z,33.40
2022-12-13T15:34:28.563Z,33.60
2022-12-13T15:37:04.105Z,35.03
2022-12-13T15:39:31.296Z,38.97
2022-12-13T15:41:58.264Z,34.10
2022-12-13T15:44:39.558Z,39.97
2022-12-13T15:47:28.828Z,35.30
2022-12-13T15:50:03.693Z,32.87
2022-12-13T15:52:39.204Z,31.53
2022-12-13T15:55:05.684Z,32.10
2022-12-13T15:57:34.463Z,31.67
2022-12-13T16:00:15.255Z,30.37
2022-12-13T16:03:13.615Z,33.33
2022-12-13T16:05:51.615Z,30.83
2022-12-13T16:08:33.150Z,29.47
2022-12-13T16:11:00.319Z,30.17
2022-12-13T16:13:39.145Z,34.47
2022-12-13T16:16:27.059Z,32.20
2022-12-13T16:18:59.207Z,31.47
2022-12-13T16:21:26.882Z,31.93
2022-12-13T16:23:53.843Z,32.73
2022-12-13T16:26:28.795Z,32.57
2022-12-13T16:28:58.727Z,32.37
2022-12-13T16:31:35.853Z,32.10
2022-12-13T16:34:03.975Z,31.77
2022-12-13T16:36:30.566Z,33.97
2022-12-13T16:38:58.110Z,34.03
2022-12-13T16:41:25.139Z,33.37
2022-12-13T16:44:00.587Z,33.03
2022-12-13T16:47:14.280Z,31.23
2022-12-13T16:49:28.577Z,31.80
2022-12-13T16:51:55.946Z,29.50
2022-12-13T16:54:23.687Z,32.70
2022-12-13T16:56:51.308Z,34.37
2022-12-13T16:59:19.892Z,34.03
2022-12-13T17:01:47.505Z,34.13
2022-12-13T17:04:20.535Z,38.90
2022-12-13T17:06:54.492Z,40.57
2022-12-13T17:09:22.659Z,33.50
2022-12-13T17:11:49.202Z,31.00
2022-12-13T17:14:21.981Z,33.20
2022-12-13T17:16:48.556Z,32.63
2022-12-13T17:19:15.786Z,31.57
2022-12-13T17:21:42.436Z,32.20
2022-12-13T17:24:08.931Z,31.93
2022-12-13T17:26:35.676Z,31.57
2022-12-13T17:29:02.203Z,33.80
2022-12-13T17:31:36.103Z,32.20
2022-12-13T17:34:04.114Z,33.23
2022-12-13T17:36:31.587Z,32.77
2022-12-13T17:38:58.441Z,33.13
2022-12-13T17:41:25.935Z,30.03
2022-12-13T17:43:52.611Z,32.97
2022-12-13T17:46:19.482Z,34.13
2022-12-13T17:48:47.371Z,33.65
2022-12-13T17:51:18.275Z,33.45
2022-12-13T17:53:44.834Z,33.78
2022-12-13T17:56:15.860Z,34.60
2022-12-13T17:58:42.739Z,37.05
2022-12-13T18:01:20.430Z,35.42
2022-12-13T18:03:48.880Z,32.08
2022-12-13T18:06:18.840Z,35.23
2022-12-13T18:08:46.678Z,37.47
2022-12-13T18:11:33.627Z,36.35
2022-12-13T18:14:01.879Z,32.65
2022-12-13T18:16:36.971Z,37.47
2022-12-13T18:19:09.082Z,33.60
2022-12-13T18:21:36.915Z,36.85
2022-12-13T18:24:04.208Z,31.98
2022-12-13T18:26:31.770Z,33.85
2022-12-13T18:28:58.414Z,35.38
2022-12-13T18:31:25.299Z,33.38
2022-12-13T18:33:53.310Z,35.33
2022-12-13T18:36:21.120Z,34.65
2022-12-13T18:38:48.147Z,33.45
2022-12-13T18:41:21.100Z,35.05
2022-12-13T18:43:47.922Z,33.47
2022-12-13T18:46:15.828Z,35.58
2022-12-13T18:48:43.789Z,35.10
2022-12-13T18:51:10.831Z,35.95
2022-12-13T18:53:38.326Z,36.97
2022-12-13T18:56:09.579Z,36.35
2022-12-13T18:58:47.359Z,34.80
2022-12-13T19:01:15.736Z,37.33
2022-12-13T19:03:46.991Z,34.05
2022-12-13T19:06:19.101Z,38.70
2022-12-13T19:08:51.457Z,39.28
2022-12-13T19:11:18.860Z,38.28
2022-12-13T19:13:45.534Z,37.90
2022-12-13T19:16:14.639Z,35.85
2022-12-13T19:18:42.561Z,37.67
2022-12-13T19:21:12.521Z,36.08
2022-12-13T19:23:40.794Z,40.45
2022-12-13T19:26:13.320Z,39.72
2022-12-13T19:28:41.577Z,38.88
2022-12-13T19:31:10.089Z,40.83
2022-12-13T19:33:36.683Z,39.28
2022-12-13T19:36:03.875Z,42.28
2022-12-13T19:38:30.641Z,40.38
2022-12-13T19:40:59.374Z,45.08
2022-12-13T19:43:27.484Z,39.60
2022-12-13T19:45:56.359Z,40.45
2022-12-13T19:48:23.009Z,38.78
2022-12-13T19:51:05.370Z,38.47
2022-12-13T19:53:32.811Z,38.67
2022-12-13T19:56:01.400Z,36.35
2022-12-13T19:58:28.193Z,37.35
2022-12-13T20:01:01.344Z,38.78
2022-12-13T20:03:28.345Z,36.35
2022-12-13T20:05:58.905Z,37.67
2022-12-13T20:08:25.629Z,38.60
2022-12-13T20:11:13.225Z,38.85
2022-12-13T20:13:39.898Z,40.90
2022-12-13T20:16:06.992Z,41.85
2022-12-13T20:18:34.274Z,41.15
2022-12-13T20:21:11.497Z,42.42
2022-12-13T20:23:38.968Z,42.42
2022-12-13T20:26:08.568Z,42.08
2022-12-13T20:28:35.147Z,40.83
2022-12-13T20:31:08.934Z,40.75
2022-12-13T20:33:35.780Z,41.80
2022-12-13T20:36:26.163Z,39.13
2022-12-13T20:38:55.988Z,38.83
2022-12-13T20:41:23.678Z,40.38
2022-12-13T20:43:55.004Z,37.50
2022-12-13T20:46:22.844Z,37.20
2022-12-13T20:48:50.335Z,38.65
2022-12-13T20:51:19.519Z,39.78
2022-12-13T20:53:48.268Z,40.40
2022-12-13T20:56:17.545Z,39.95
2022-12-13T20:58:44.379Z,39.28
2022-12-13T21:01:25.327Z,39.38
2022-12-13T21:03:57.127Z,39.60
2022-12-13T21:06:24.117Z,38.65
2022-12-13T21:09:00.054Z,38.00
2022-12-13T21:11:38.592Z,39.33
2022-12-13T21:14:25.261Z,36.38
2022-12-13T21:17:00.029Z,37.40
2022-12-13T21:19:38.895Z,37.20
2022-12-13T21:22:06.393Z,37.80
2022-12-13T21:24:32.864Z,33.65
2022-12-13T21:26:59.925Z,39.35
2022-12-13T21:29:26.384Z,37.55
2022-12-13T21:31:54.690Z,35.80
2022-12-13T21:34:22.414Z,38.15
2022-12-13T21:36:52.097Z,34.97
2022-12-13T21:39:20.189Z,37.53
2022-12-13T21:41:46.786Z,36.47
2022-12-13T21:44:16.366Z,35.30
2022-12-13T21:49:30.101Z,34.30
2022-12-13T21:51:56.546Z,35.05
2022-12-13T21:54:23.074Z,35.55
2022-12-13T21:57:08.077Z,34.20
2022-12-13T21:59:34.590Z,35.05
2022-12-13T22:02:18.531Z,33.92
2022-12-13T22:04:47.460Z,33.50
2022-12-13T22:07:17.032Z,32.72
2022-12-13T22:09:44.224Z,32.58
2022-12-13T22:12:29.318Z,32.92
2022-12-13T22:14:56.271Z,32.05
2022-12-13T22:17:29.706Z,33.17
2022-12-13T22:19:59.753Z,31.25
2022-12-13T22:22:26.539Z,32.55
2022-12-13T22:24:53.985Z,31.83
2022-12-13T22:27:24.197Z,32.78
2022-12-13T22:29:56.891Z,31.45
2022-12-13T22:32:25.590Z,31.83
2022-12-13T22:34:52.124Z,30.63
2022-12-13T22:37:18.589Z,32.72
2022-12-13T22:39:45.503Z,30.35
2022-12-13T22:42:12.322Z,32.05
2022-12-13T22:44:39.016Z,31.98
2022-12-13T22:47:06.693Z,34.28
2022-12-13T22:49:33.327Z,33.03
2022-12-13T22:51:59.988Z,31.80
2022-12-13T22:54:26.471Z,31.52
2022-12-13T22:56:53.618Z,31.88
2022-12-13T22:59:20.102Z,32.58
2022-12-13T23:01:47.153Z,29.00
2022-12-13T23:04:14.014Z,30.65
2022-12-13T23:06:41.379Z,30.30
2022-12-13T23:09:11.076Z,30.40
2022-12-13T23:11:56.189Z,29.35
2022-12-13T23:14:28.329Z,29.45
2022-12-13T23:16:55.137Z,29.17
2022-12-13T23:22:08.709Z,28.73
2022-12-13T23:24:35.521Z,28.63
2022-12-13T23:27:02.025Z,27.20
2022-12-13T23:29:28.462Z,28.60
2022-12-13T23:31:54.937Z,26.75
2022-12-13T23:34:21.910Z,27.73
2022-12-13T23:36:48.386Z,26.10
2022-12-13T23:39:14.839Z,26.88
2022-12-13T23:41:41.278Z,27.13
2022-12-13T23:44:07.783Z,26.17
2022-12-13T23:46:35.737Z,26.45
2022-12-13T23:49:05.335Z,26.58
2022-12-13T23:51:32.584Z,22.70
2022-12-13T23:53:59.166Z,26.50
2022-12-13T23:56:25.819Z,26.27
2022-12-13T23:58:52.324Z,25.85
